Time;durP1;ratioP1;P1;durP2;ratioP2;P2;SDS_P1;SDS_P2;PMS_P1;PMS_P2;Temp;Humidity;BMP_temperature;BMP_pressure;BME280_temperature;BME280_humidity;BME280_pressure;Samples;Min_cycle;Max_cycle;Signal;HPM_P1;HPM_P2
2021/03/18 00:01:14;;;;;;;15.55;7.20;;;;;;;;;;5157490;27;20176;-53
2021/03/18 00:03:42;;;;;;;11.63;7.30;;;;;;;;;;5157506;27;20191;-55
2021/03/18 00:06:09;;;;;;;12.95;6.57;;;;;;;;;;5157667;27;20208;-54
2021/03/18 00:08:55;;;;;;;15.63;7.65;;;;;;;;;;5157959;27;20198;-57
2021/03/18 00:11:23;;;;;;;15.27;8.57;;;;;;;;;;5139745;27;20229;-52
2021/03/18 00:13:51;;;;;;;14.25;8.52;;;;;;;;;;5157684;27;20233;-53
2021/03/18 00:19:21;;;;;;;15.40;9.30;;;;;;;;;;5157659;27;20214;-51
2021/03/18 00:21:48;;;;;;;17.60;9.00;;;;;;;;;;5157762;27;20210;-47
2021/03/18 00:24:33;;;;;;;15.32;8.30;;;;;;;;;;5157126;27;20192;-48
2021/03/18 00:26:59;;;;;;;14.02;6.68;;;;;;;;;;5156123;27;20277;-53
2021/03/18 00:29:27;;;;;;;16.50;6.63;;;;;;;;;;5157295;27;20244;-52
2021/03/18 00:31:57;;;;;;;17.60;8.23;;;;;;;;;;5158129;27;20200;-53
2021/03/18 00:34:24;;;;;;;13.00;7.10;;;;;;;;;;5156916;27;20303;-51
2021/03/18 00:36:50;;;;;;;16.92;6.97;;;;;;;;;;5157261;27;20199;-52
2021/03/18 00:39:19;;;;;;;10.25;7.25;;;;;;;;;;5157394;27;20200;-51
2021/03/18 00:41:45;;;;;;;10.10;6.00;;;;;;;;;;5157276;27;20204;-47
2021/03/18 00:44:12;;;;;;;14.10;7.82;;;;;;;;;;5157328;27;20288;-51
2021/03/18 00:46:46;;;;;;;11.55;6.82;;;;;;;;;;5156946;27;20242;-52
2021/03/18 00:49:13;;;;;;;11.55;6.47;;;;;;;;;;5157073;27;20187;-56
2021/03/18 00:51:40;;;;;;;18.48;6.80;;;;;;;;;;5157754;27;20270;-51
2021/03/18 00:54:26;;;;;;;11.75;7.68;;;;;;;;;;5157131;27;20247;-51
2021/03/18 00:56:53;;;;;;;14.32;5.88;;;;;;;;;;5157021;27;20252;-51
2021/03/18 00:59:20;;;;;;;11.27;6.15;;;;;;;;;;5157055;27;20192;-54
2021/03/18 01:01:57;;;;;;;9.75;6.20;;;;;;;;;;5157551;27;20192;-53
2021/03/18 01:04:24;;;;;;;16.88;7.03;;;;;;;;;;5156483;27;20183;-55
2021/03/18 01:06:51;;;;;;;8.98;6.07;;;;;;;;;;5156852;27;20185;-51
2021/03/18 01:09:18;;;;;;;17.63;6.75;;;;;;;;;;5154915;27;20199;-52
2021/03/18 01:11:45;;;;;;;15.20;6.78;;;;;;;;;;5156485;28;20188;-47
2021/03/18 01:14:12;;;;;;;12.02;6.60;;;;;;;;;;5156899;28;20219;-47
2021/03/18 01:19:43;;;;;;;16.85;6.88;;;;;;;;;;5156933;28;20178;-47
2021/03/18 01:22:10;;;;;;;16.17;6.47;;;;;;;;;;5156509;28;20421;-53
2021/03/18 01:24:37;;;;;;;12.57;7.53;;;;;;;;;;5156788;28;20211;-49
2021/03/18 01:27:04;;;;;;;13.27;7.40;;;;;;;;;;5156560;28;20200;-52
2021/03/18 01:29:35;;;;;;;16.80;8.13;;;;;;;;;;5155616;28;20195;-55
2021/03/18 01:32:02;;;;;;;19.80;8.48;;;;;;;;;;5156586;28;20251;-52
2021/03/18 01:34:29;;;;;;;9.35;6.70;;;;;;;;;;5156688;28;20208;-55
2021/03/18 01:36:56;;;;;;;19.48;8.20;;;;;;;;;;5156859;27;20231;-50
2021/03/18 01:39:23;;;;;;;12.25;8.02;;;;;;;;;;5156224;28;20226;-54
2021/03/18 01:42:13;;;;;;;10.82;7.60;;;;;;;;;;5156663;27;20210;-53
2021/03/18 01:44:40;;;;;;;13.07;7.80;;;;;;;;;;5157803;27;20210;-51
2021/03/18 01:47:07;;;;;;;12.63;7.78;;;;;;;;;;5161504;27;20190;-52
2021/03/18 01:49:50;;;;;;;13.30;7.10;;;;;;;;;;5161125;27;20187;-49
2021/03/18 01:52:18;;;;;;;15.45;7.40;;;;;;;;;;5153599;27;20258;-55
2021/03/18 01:54:44;;;;;;;11.55;8.00;;;;;;;;;;5140364;27;20243;-54
2021/03/18 01:57:37;;;;;;;12.15;7.65;;;;;;;;;;5140096;27;20173;-54
2021/03/18 02:00:05;;;;;;;15.50;6.57;;;;;;;;;;5139346;27;20201;-51
2021/03/18 02:02:32;;;;;;;16.48;6.63;;;;;;;;;;5139965;28;20201;-54
2021/03/18 02:05:01;;;;;;;14.25;7.15;;;;;;;;;;5139645;27;20192;-52
2021/03/18 02:07:29;;;;;;;13.07;6.10;;;;;;;;;;5154606;27;20242;-54
2021/03/18 02:09:56;;;;;;;16.08;9.45;;;;;;;;;;5160581;27;20235;-52
2021/03/18 02:12:22;;;;;;;12.70;7.43;;;;;;;;;;5160536;27;20177;-50
2021/03/18 02:14:49;;;;;;;15.55;8.18;;;;;;;;;;5160216;27;20223;-56
2021/03/18 02:17:19;;;;;;;12.43;5.90;;;;;;;;;;5160344;27;20183;-53
2021/03/18 02:20:13;;;;;;;12.00;6.65;;;;;;;;;;5159943;27;20218;-52
2021/03/18 02:23:17;;;;;;;14.30;5.53;;;;;;;;;;5160154;27;20187;-55
2021/03/18 02:25:46;;;;;;;12.95;5.63;;;;;;;;;;5160528;27;20207;-51
2021/03/18 02:28:25;;;;;;;11.13;6.13;;;;;;;;;;5159805;27;20192;-49
2021/03/18 02:31:04;;;;;;;10.40;7.10;;;;;;;;;;5159825;27;20222;-57
2021/03/18 02:34:02;;;;;;;12.70;7.85;;;;;;;;;;5159539;27;20191;-52
2021/03/18 02:39:35;;;;;;;21.17;7.55;;;;;;;;;;5139185;27;20210;-58
2021/03/18 02:42:04;;;;;;;15.57;7.05;;;;;;;;;;5148313;27;20196;-48
2021/03/18 02:44:51;;;;;;;12.80;6.18;;;;;;;;;;5159980;27;20204;-50
2021/03/18 02:47:20;;;;;;;9.10;6.15;;;;;;;;;;5159850;27;20200;-46
2021/03/18 02:49:47;;;;;;;10.40;6.90;;;;;;;;;;5159586;27;20204;-51
2021/03/18 02:52:18;;;;;;;12.07;7.03;;;;;;;;;;5159289;27;20207;-53
2021/03/18 02:54:46;;;;;;;11.35;6.85;;;;;;;;;;5159811;27;20242;-49
2021/03/18 02:57:24;;;;;;;10.57;6.20;;;;;;;;;;5141875;27;20195;-55
2021/03/18 02:59:51;;;;;;;10.25;7.15;;;;;;;;;;5159328;27;20223;-57
2021/03/18 03:02:21;;;;;;;10.50;6.70;;;;;;;;;;5159125;27;20204;-48
2021/03/18 03:04:55;;;;;;;13.73;6.82;;;;;;;;;;5159090;27;20243;-52
2021/03/18 03:07:25;;;;;;;14.90;7.38;;;;;;;;;;5158470;27;20215;-52
2021/03/18 03:09:53;;;;;;;15.75;7.00;;;;;;;;;;5158674;27;20235;-54
2021/03/18 03:12:27;;;;;;;9.30;5.90;;;;;;;;;;5158438;27;20211;-53
2021/03/18 03:14:55;;;;;;;10.80;7.90;;;;;;;;;;5158915;27;20258;-53
2021/03/18 03:17:23;;;;;;;11.52;6.68;;;;;;;;;;5159584;27;20240;-57
2021/03/18 03:19:51;;;;;;;10.93;6.78;;;;;;;;;;5158971;27;20214;-54
2021/03/18 03:22:18;;;;;;;12.23;6.63;;;;;;;;;;5158639;27;20250;-53
2021/03/18 03:24:45;;;;;;;11.95;6.35;;;;;;;;;;5158990;27;20192;-53
2021/03/18 03:27:16;;;;;;;14.77;6.38;;;;;;;;;;5158868;27;20213;-50
2021/03/18 03:29:44;;;;;;;10.68;6.05;;;;;;;;;;5158935;27;20188;-50
2021/03/18 03:32:12;;;;;;;10.80;6.45;;;;;;;;;;5158460;27;20225;-56
2021/03/18 03:37:43;;;;;;;12.32;6.10;;;;;;;;;;5158533;27;20205;-54
2021/03/18 03:40:11;;;;;;;15.40;7.10;;;;;;;;;;5158527;27;20214;-52
2021/03/18 03:42:49;;;;;;;12.70;6.05;;;;;;;;;;5158692;27;20204;-50
2021/03/18 03:45:17;;;;;;;16.90;6.60;;;;;;;;;;5158346;27;20216;-50
2021/03/18 03:47:44;;;;;;;17.00;6.85;;;;;;;;;;5158910;27;20211;-58
2021/03/18 03:50:13;;;;;;;11.60;7.47;;;;;;;;;;5158333;27;20249;-54
2021/03/18 03:52:41;;;;;;;9.60;6.93;;;;;;;;;;5158742;27;20200;-56
2021/03/18 03:55:09;;;;;;;16.00;7.80;;;;;;;;;;5158510;27;20231;-51
2021/03/18 03:57:49;;;;;;;12.65;7.25;;;;;;;;;;5158218;27;20192;-47
2021/03/18 04:00:18;;;;;;;12.90;7.32;;;;;;;;;;5157724;27;20195;-52
2021/03/18 04:02:47;;;;;;;11.43;6.03;;;;;;;;;;5158394;27;20184;-52
2021/03/18 04:05:28;;;;;;;13.15;7.13;;;;;;;;;;5157737;27;20219;-53
2021/03/18 04:07:56;;;;;;;13.40;8.65;;;;;;;;;;5157112;27;20207;-55
2021/03/18 04:10:25;;;;;;;13.45;7.40;;;;;;;;;;5157469;27;20234;-53
2021/03/18 04:13:19;;;;;;;15.48;7.40;;;;;;;;;;5137481;28;20313;-54
2021/03/18 04:15:48;;;;;;;15.55;7.13;;;;;;;;;;5149067;27;20231;-54
2021/03/18 04:18:15;;;;;;;14.95;8.13;;;;;;;;;;5157711;27;20199;-55
2021/03/18 04:20:43;;;;;;;13.63;7.28;;;;;;;;;;5155652;27;20192;-55
2021/03/18 04:23:11;;;;;;;12.80;7.63;;;;;;;;;;5136684;28;20199;-54
2021/03/18 04:26:06;;;;;;;15.07;6.78;;;;;;;;;;5140933;27;20202;-49
2021/03/18 04:28:35;;;;;;;13.30;7.82;;;;;;;;;;5158112;27;20195;-55
2021/03/18 04:31:03;;;;;;;21.83;8.15;;;;;;;;;;5157627;27;20219;-50
2021/03/18 04:33:39;;;;;;;16.52;9.05;;;;;;;;;;5158290;27;20259;-50
2021/03/18 04:36:08;;;;;;;13.90;7.55;;;;;;;;;;5157844;27;20199;-52
2021/03/18 04:38:35;;;;;;;12.55;8.35;;;;;;;;;;5157748;27;20184;-56
2021/03/18 04:41:13;;;;;;;11.18;6.88;;;;;;;;;;5157287;27;20184;-55
2021/03/18 04:43:42;;;;;;;19.20;9.73;;;;;;;;;;5157528;27;20195;-52
2021/03/18 04:46:09;;;;;;;20.33;9.85;;;;;;;;;;5157689;27;20214;-52
2021/03/18 04:48:52;;;;;;;12.27;7.70;;;;;;;;;;5156762;27;20228;-51
2021/03/18 04:51:19;;;;;;;11.77;7.90;;;;;;;;;;5157457;27;20184;-52
2021/03/18 04:53:46;;;;;;;17.55;10.05;;;;;;;;;;5157319;27;20196;-49
2021/03/18 04:56:15;;;;;;;16.73;8.48;;;;;;;;;;5157443;27;20210;-52
2021/03/18 04:58:42;;;;;;;23.08;9.32;;;;;;;;;;5157990;27;20180;-60
2021/03/18 05:01:10;;;;;;;15.05;10.32;;;;;;;;;;5158077;27;20267;-56
2021/03/18 05:03:57;;;;;;;15.02;9.07;;;;;;;;;;5158160;27;20184;-48
2021/03/18 05:06:25;;;;;;;15.30;9.57;;;;;;;;;;5155697;27;20211;-53
2021/03/18 05:08:54;;;;;;;13.63;9.82;;;;;;;;;;5157728;27;20176;-53
2021/03/18 05:11:21;;;;;;;18.70;10.00;;;;;;;;;;5157488;27;20249;-58
2021/03/18 05:13:49;;;;;;;17.08;10.02;;;;;;;;;;5157093;28;20210;-53
2021/03/18 05:19:20;;;;;;;14.18;7.15;;;;;;;;;;5156782;27;20186;-58
2021/03/18 05:21:48;;;;;;;12.10;7.65;;;;;;;;;;5170722;27;20411;-51
2021/03/18 05:24:25;;;;;;;14.60;5.80;;;;;;;;;;5182002;27;20215;-54
2021/03/18 05:26:51;;;;;;;9.07;6.55;;;;;;;;;;5182608;27;20208;-54
2021/03/18 05:29:19;;;;;;;11.18;7.03;;;;;;;;;;5178911;27;20183;-50
2021/03/18 05:32:00;;;;;;;13.35;7.63;;;;;;;;;;5155764;27;20203;-54
2021/03/18 05:34:28;;;;;;;9.80;6.60;;;;;;;;;;5140036;27;20231;-55
2021/03/18 05:36:54;;;;;;;9.80;5.82;;;;;;;;;;5140727;28;20193;-55
2021/03/18 05:39:37;;;;;;;10.52;6.40;;;;;;;;;;5140337;27;20211;-50
2021/03/18 05:42:04;;;;;;;11.35;7.68;;;;;;;;;;5153505;27;20195;-56
2021/03/18 05:44:31;;;;;;;13.07;6.35;;;;;;;;;;5147399;27;20211;-49
2021/03/18 05:47:04;;;;;;;10.60;6.85;;;;;;;;;;5140271;28;20205;-56
2021/03/18 05:49:32;;;;;;;16.48;6.40;;;;;;;;;;5153257;27;20210;-57
2021/03/18 05:51:59;;;;;;;14.60;7.57;;;;;;;;;;5161229;27;20184;-47
2021/03/18 05:54:47;;;;;;;14.18;7.70;;;;;;;;;;5143085;27;20216;-54
2021/03/18 05:57:16;;;;;;;11.52;7.72;;;;;;;;;;5160506;27;20188;-57
2021/03/18 05:59:44;;;;;;;26.08;10.05;;;;;;;;;;5160619;27;20188;-57
2021/03/18 06:02:21;;;;;;;11.15;7.85;;;;;;;;;;5164542;27;20204;-59
2021/03/18 06:04:48;;;;;;;15.13;8.02;;;;;;;;;;5172850;27;20224;-56
2021/03/18 06:07:15;;;;;;;14.45;8.57;;;;;;;;;;5181453;27;20199;-49
2021/03/18 06:09:47;;;;;;;21.67;9.23;;;;;;;;;;5181259;27;20201;-54
2021/03/18 06:12:16;;;;;;;11.07;7.57;;;;;;;;;;5181365;27;20210;-54
2021/03/18 06:14:44;;;;;;;17.40;9.50;;;;;;;;;;5180509;27;20223;-52
2021/03/18 06:17:17;;;;;;;12.38;7.10;;;;;;;;;;5179747;27;20191;-56
2021/03/18 06:19:44;;;;;;;13.30;7.75;;;;;;;;;;5168414;27;20206;-55
2021/03/18 06:22:12;;;;;;;17.52;8.80;;;;;;;;;;5180702;27;20211;-55
2021/03/18 06:24:51;;;;;;;15.27;8.00;;;;;;;;;;5167943;27;20192;-55
2021/03/18 06:27:27;;;;;;;12.75;7.78;;;;;;;;;;5180604;27;20263;-59
2021/03/18 06:29:53;;;;;;;16.50;8.20;;;;;;;;;;5179956;27;20269;-55
2021/03/18 06:35:28;;;;;;;12.38;7.85;;;;;;;;;;5164654;27;20246;-56
2021/03/18 06:37:57;;;;;;;14.05;8.18;;;;;;;;;;5179149;27;20183;-55
2021/03/18 06:40:26;;;;;;;14.70;8.48;;;;;;;;;;5180917;27;20216;-56
2021/03/18 06:42:56;;;;;;;12.35;7.95;;;;;;;;;;5180634;27;20296;-53
2021/03/18 06:45:31;;;;;;;14.95;8.45;;;;;;;;;;5180799;27;20255;-53
2021/03/18 06:48:00;;;;;;;11.55;9.02;;;;;;;;;;5180597;27;20218;-56
2021/03/18 06:50:32;;;;;;;13.57;8.00;;;;;;;;;;5179980;27;20254;-58
2021/03/18 06:53:21;;;;;;;14.38;7.80;;;;;;;;;;5179605;27;20231;-51
2021/03/18 06:55:52;;;;;;;13.65;8.70;;;;;;;;;;5179965;27;20214;-59
2021/03/18 07:01:53;;;;;;;17.15;8.95;;;;;;;;;;5180853;27;20174;-56
2021/03/18 07:04:33;;;;;;;19.00;9.93;;;;;;;;;;5159384;27;20270;-55
2021/03/18 07:07:01;;;;;;;18.20;8.02;;;;;;;;;;5151462;27;20185;-57
2021/03/18 07:09:33;;;;;;;12.18;8.13;;;;;;;;;;5142404;27;20231;-52
2021/03/18 07:12:01;;;;;;;14.10;8.95;;;;;;;;;;5154682;27;20208;-57
2021/03/18 07:17:36;;;;;;;13.50;8.38;;;;;;;;;;5157242;27;20238;-56
2021/03/18 07:20:16;;;;;;;12.45;8.00;;;;;;;;;;5158810;27;20211;-51
2021/03/18 07:22:47;;;;;;;14.75;9.70;;;;;;;;;;5158965;27;20196;-54
2021/03/18 07:25:27;;;;;;;15.13;9.00;;;;;;;;;;5158556;27;20207;-55
2021/03/18 07:27:55;;;;;;;13.23;8.38;;;;;;;;;;5142755;27;20180;-54
2021/03/18 07:30:26;;;;;;;26.27;12.63;;;;;;;;;;5137243;28;20200;-55
2021/03/18 07:32:53;;;;;;;20.08;12.18;;;;;;;;;;5150384;27;20191;-54
2021/03/18 07:35:30;;;;;;;21.88;13.18;;;;;;;;;;5158083;27;20223;-59
2021/03/18 07:38:09;;;;;;;20.15;11.95;;;;;;;;;;5156914;27;20191;-57
2021/03/18 07:43:45;;;;;;;22.98;13.15;;;;;;;;;;5117263;28;20275;-51
2021/03/18 07:46:13;;;;;;;23.23;14.95;;;;;;;;;;5139763;27;20222;-52
2021/03/18 07:48:59;;;;;;;20.33;16.30;;;;;;;;;;5156653;27;20187;-61
2021/03/18 07:51:27;;;;;;;34.90;15.77;;;;;;;;;;5157058;27;20200;-59
2021/03/18 07:53:54;;;;;;;25.05;13.43;;;;;;;;;;5150063;27;20335;-55
2021/03/18 07:56:44;;;;;;;22.33;13.82;;;;;;;;;;5139745;27;20216;-57
2021/03/18 07:59:13;;;;;;;23.08;14.80;;;;;;;;;;5170347;27;20234;-60
2021/03/18 08:01:42;;;;;;;21.73;13.73;;;;;;;;;;5178739;27;20194;-58
2021/03/18 08:04:39;;;;;;;23.23;16.58;;;;;;;;;;5178795;27;20199;-56
2021/03/18 08:07:06;;;;;;;25.88;15.10;;;;;;;;;;5166315;27;20235;-54
2021/03/18 08:09:51;;;;;;;18.60;15.27;;;;;;;;;;5158277;27;20196;-59
2021/03/18 08:12:32;;;;;;;18.65;15.25;;;;;;;;;;5157332;27;20192;-59
2021/03/18 08:18:14;;;;;;;36.67;21.17;;;;;;;;;;5157119;27;20237;-53
2021/03/18 08:21:01;;;;;;;42.25;26.08;;;;;;;;;;5156770;27;20246;-52
2021/03/18 08:23:54;;;;;;;41.35;25.38;;;;;;;;;;5157467;27;20223;-55
2021/03/18 08:26:36;;;;;;;38.10;24.05;;;;;;;;;;5156942;27;20200;-54
2021/03/18 08:29:05;;;;;;;41.88;25.42;;;;;;;;;;5140114;27;20272;-57
2021/03/18 08:31:43;;;;;;;45.50;25.85;;;;;;;;;;5156983;27;20192;-56
2021/03/18 08:34:14;;;;;;;51.80;32.58;;;;;;;;;;5156456;27;20203;-53
2021/03/18 08:37:00;;;;;;;50.72;30.65;;;;;;;;;;5165116;27;20210;-56
2021/03/18 08:39:43;;;;;;;53.58;31.70;;;;;;;;;;5177537;27;20215;-56
2021/03/18 08:42:28;;;;;;;53.50;31.30;;;;;;;;;;5176450;27;20198;-57
2021/03/18 08:44:56;;;;;;;51.85;31.60;;;;;;;;;;5177558;27;20211;-58
2021/03/18 08:47:35;;;;;;;48.25;30.15;;;;;;;;;;5177516;27;20187;-54
2021/03/18 08:50:09;;;;;;;41.38;26.95;;;;;;;;;;5177057;27;20240;-55
2021/03/18 08:52:39;;;;;;;45.40;29.88;;;;;;;;;;5171153;27;20211;-50
2021/03/18 08:55:11;;;;;;;55.97;31.38;;;;;;;;;;5156994;27;20258;-60
2021/03/18 08:57:46;;;;;;;55.03;32.53;;;;;;;;;;5169214;27;20214;-53
2021/03/18 09:00:15;;;;;;;53.67;32.13;;;;;;;;;;5198080;27;20186;-57
2021/03/18 09:02:43;;;;;;;45.33;29.02;;;;;;;;;;5197253;27;20186;-57
2021/03/18 09:05:14;;;;;;;50.45;30.17;;;;;;;;;;5180566;27;20191;-53
2021/03/18 09:07:45;;;;;;;54.08;28.77;;;;;;;;;;5169142;27;20203;-53
2021/03/18 09:10:27;;;;;;;48.70;31.83;;;;;;;;;;5155758;27;20200;-61
2021/03/18 09:13:04;;;;;;;46.63;29.20;;;;;;;;;;5145786;27;20219;-58
2021/03/18 09:15:38;;;;;;;51.08;31.80;;;;;;;;;;5175579;27;20234;-58
2021/03/18 09:18:18;;;;;;;48.25;31.05;;;;;;;;;;5177033;27;20199;-56
2021/03/18 09:20:52;;;;;;;52.20;31.50;;;;;;;;;;5177364;27;20207;-60
2021/03/18 09:23:41;;;;;;;48.42;33.40;;;;;;;;;;5176612;27;20178;-49
2021/03/18 09:26:12;;;;;;;52.75;30.63;;;;;;;;;;5177182;27;20220;-57
2021/03/18 09:28:40;;;;;;;53.83;32.75;;;;;;;;;;5177510;27;20221;-52
2021/03/18 09:31:38;;;;;;;49.58;32.25;;;;;;;;;;5176217;27;20199;-55
2021/03/18 09:34:07;;;;;;;47.30;31.95;;;;;;;;;;5175356;27;20248;-58
2021/03/18 09:39:17;;;;;;;50.25;32.05;;;;;;;;;;5177907;27;20202;-57
2021/03/18 09:41:51;;;;;;;49.80;31.30;;;;;;;;;;5177141;27;20195;-56
2021/03/18 09:44:20;;;;;;;51.08;31.75;;;;;;;;;;5176073;27;20210;-55
2021/03/18 09:46:58;;;;;;;51.05;33.17;;;;;;;;;;5175888;27;20234;-57
2021/03/18 09:49:31;;;;;;;48.25;31.20;;;;;;;;;;5176386;27;20238;-53
2021/03/18 09:51:58;;;;;;;42.05;28.42;;;;;;;;;;5167476;27;20215;-59
2021/03/18 09:54:56;;;;;;;45.37;29.77;;;;;;;;;;5172704;27;20219;-59
2021/03/18 09:57:29;;;;;;;42.10;28.48;;;;;;;;;;5170670;27;20440;-55
2021/03/18 09:59:59;;;;;;;39.88;28.88;;;;;;;;;;5174625;27;20203;-54
2021/03/18 10:02:28;;;;;;;69.63;32.63;;;;;;;;;;5176531;27;20191;-58
2021/03/18 10:04:55;;;;;;;51.40;33.17;;;;;;;;;;5174510;27;20206;-56
2021/03/18 10:07:28;;;;;;;57.33;32.10;;;;;;;;;;5180022;27;20504;-55
2021/03/18 10:09:55;;;;;;;50.43;32.43;;;;;;;;;;5175169;27;20429;-52
2021/03/18 10:12:24;;;;;;;53.65;32.10;;;;;;;;;;5175691;27;20482;-57
2021/03/18 10:14:57;;;;;;;52.00;31.35;;;;;;;;;;5179162;27;20220;-51
2021/03/18 10:17:28;;;;;;;53.47;34.87;;;;;;;;;;5178668;27;20198;-53
2021/03/18 10:20:33;;;;;;;50.77;33.10;;;;;;;;;;5172749;27;20520;-53
2021/03/18 10:23:10;;;;;;;48.93;33.77;;;;;;;;;;5175287;27;20452;-53
2021/03/18 10:25:37;;;;;;;47.47;32.10;;;;;;;;;;5177309;27;20492;-58
2021/03/18 10:28:09;;;;;;;54.27;33.87;;;;;;;;;;5177772;27;20440;-55
2021/03/18 10:30:41;;;;;;;43.27;31.90;;;;;;;;;;5178504;27;20452;-57
2021/03/18 10:33:09;;;;;;;46.63;32.67;;;;;;;;;;5174170;27;20457;-55
2021/03/18 10:35:38;;;;;;;48.00;31.53;;;;;;;;;;5177275;27;20484;-57
2021/03/18 10:38:10;;;;;;;45.17;30.67;;;;;;;;;;5178334;27;20463;-55
2021/03/18 10:40:40;;;;;;;40.87;29.03;;;;;;;;;;5165459;27;20528;-45
2021/03/18 10:43:18;;;;;;;40.50;27.07;;;;;;;;;;5158071;27;20488;-56
2021/03/18 10:46:04;;;;;;;44.65;27.85;;;;;;;;;;5157718;27;20453;-56
2021/03/18 10:48:31;;;;;;;41.77;26.80;;;;;;;;;;5155826;27;20199;-60
2021/03/18 10:51:06;;;;;;;42.67;26.90;;;;;;;;;;5145944;27;20426;-53
2021/03/18 10:54:07;;;;;;;50.53;29.17;;;;;;;;;;5158751;27;20502;-54
2021/03/18 10:56:34;;;;;;;49.77;28.00;;;;;;;;;;5140741;27;20952;-51
2021/03/18 10:59:13;;;;;;;51.77;29.70;;;;;;;;;;5157612;27;20479;-52
2021/03/18 11:01:41;;;;;;;41.47;23.60;;;;;;;;;;5158671;27;20576;-55
2021/03/18 11:04:10;;;;;;;37.10;22.83;;;;;;;;;;5139786;27;20433;-56
2021/03/18 11:06:52;;;;;;;31.60;21.80;;;;;;;;;;5156257;27;20479;-54
2021/03/18 11:09:20;;;;;;;30.30;18.77;;;;;;;;;;5155013;27;20438;-55
2021/03/18 11:11:54;;;;;;;27.43;19.33;;;;;;;;;;5156395;27;20783;-55
2021/03/18 11:14:23;;;;;;;26.23;18.00;;;;;;;;;;5156634;27;20461;-56
2021/03/18 11:17:02;;;;;;;30.53;19.20;;;;;;;;;;5155451;27;20461;-58
2021/03/18 11:19:29;;;;;;;28.80;19.43;;;;;;;;;;5156988;27;20478;-55
2021/03/18 11:22:02;;;;;;;27.40;17.27;;;;;;;;;;5157306;27;20456;-59
2021/03/18 11:24:29;;;;;;;26.40;17.97;;;;;;;;;;5157423;27;20449;-54
2021/03/18 11:27:13;;;;;;;23.00;17.07;;;;;;;;;;5157356;27;20429;-55
2021/03/18 11:29:39;;;;;;;29.47;16.30;;;;;;;;;;5156026;27;20634;-56
2021/03/18 11:32:08;;;;;;;21.30;15.33;;;;;;;;;;5155851;27;20457;-55
2021/03/18 11:34:48;;;;;;;18.00;14.50;;;;;;;;;;5155336;27;20473;-57
2021/03/18 11:37:21;;;;;;;15.80;12.27;;;;;;;;;;5155836;27;20441;-57
2021/03/18 11:39:49;;;;;;;18.97;12.23;;;;;;;;;;5155254;27;20793;-54
2021/03/18 11:42:16;;;;;;;21.50;12.37;;;;;;;;;;5155999;27;20422;-59
2021/03/18 11:44:43;;;;;;;18.70;13.87;;;;;;;;;;5148503;27;20450;-54
2021/03/18 11:47:11;;;;;;;28.13;14.80;;;;;;;;;;5139509;27;20569;-55
2021/03/18 11:49:58;;;;;;;21.23;10.07;;;;;;;;;;5149434;27;20690;-53
2021/03/18 11:52:26;;;;;;;21.17;11.00;;;;;;;;;;5148557;27;20454;-59
2021/03/18 11:54:54;;;;;;;13.77;8.73;;;;;;;;;;5134540;27;20490;-57
2021/03/18 11:57:31;;;;;;;16.10;10.37;;;;;;;;;;5134445;27;20442;-58
2021/03/18 11:59:58;;;;;;;15.83;9.37;;;;;;;;;;5154766;27;20501;-59
2021/03/18 12:02:47;;;;;;;12.37;7.90;;;;;;;;;;5135302;28;20479;-58
2021/03/18 12:05:14;;;;;;;9.43;6.37;;;;;;;;;;5147809;27;20461;-59
2021/03/18 12:07:54;;;;;;;12.63;7.97;;;;;;;;;;5147441;27;20454;-54
2021/03/18 12:10:21;;;;;;;12.97;8.07;;;;;;;;;;5152937;27;20461;-59
2021/03/18 12:12:50;;;;;;;12.13;7.03;;;;;;;;;;5149439;27;20454;-59
2021/03/18 12:15:18;;;;;;;10.20;7.33;;;;;;;;;;5156853;27;20508;-58
2021/03/18 12:17:45;;;;;;;12.20;7.43;;;;;;;;;;5151121;27;20442;-56
2021/03/18 12:20:15;;;;;;;16.83;8.77;;;;;;;;;;5150742;27;20453;-55
2021/03/18 12:22:43;;;;;;;14.40;9.27;;;;;;;;;;5154768;27;20522;-55
2021/03/18 12:25:11;;;;;;;13.97;8.13;;;;;;;;;;5142139;27;20465;-54
2021/03/18 12:27:44;;;;;;;10.23;7.47;;;;;;;;;;5149531;27;20466;-56
2021/03/18 12:30:13;;;;;;;10.50;6.27;;;;;;;;;;5142039;27;20453;-51
2021/03/18 12:32:40;;;;;;;8.97;5.40;;;;;;;;;;5154893;27;20465;-51
2021/03/18 12:35:26;;;;;;;10.13;4.73;;;;;;;;;;5155965;27;20496;-56
2021/03/18 12:37:59;;;;;;;9.63;5.22;;;;;;;;;;5144576;27;20453;-56
2021/03/18 12:40:27;;;;;;;8.73;6.07;;;;;;;;;;5145076;27;20247;-57
2021/03/18 12:45:58;;;;;;;7.47;4.13;;;;;;;;;;5147699;27;20459;-57
2021/03/18 12:48:46;;;;;;;6.97;4.40;;;;;;;;;;5143206;27;20450;-59
2021/03/18 12:51:35;;;;;;;12.85;5.25;;;;;;;;;;5139516;27;20473;-58
2021/03/18 12:54:03;;;;;;;9.53;4.83;;;;;;;;;;5153624;27;20245;-52
2021/03/18 12:56:30;;;;;;;7.63;5.07;;;;;;;;;;5156451;27;20552;-54
2021/03/18 12:59:14;;;;;;;7.73;4.33;;;;;;;;;;5152452;27;20469;-56
2021/03/18 13:01:46;;;;;;;6.13;3.70;;;;;;;;;;5152848;27;20448;-50
2021/03/18 13:04:13;;;;;;;10.67;5.10;;;;;;;;;;5151440;27;20435;-55
2021/03/18 13:06:40;;;;;;;6.40;3.93;;;;;;;;;;5147211;27;20473;-57
2021/03/18 13:09:11;;;;;;;12.87;5.00;;;;;;;;;;5139844;27;20555;-51
2021/03/18 13:11:46;;;;;;;7.20;4.37;;;;;;;;;;5153230;27;20460;-54
2021/03/18 13:14:14;;;;;;;6.80;4.60;;;;;;;;;;5142207;27;20510;-58
2021/03/18 13:16:44;;;;;;;10.33;6.03;;;;;;;;;;5139998;27;20479;-53
2021/03/18 13:19:27;;;;;;;8.13;4.67;;;;;;;;;;5143482;28;20430;-54
2021/03/18 13:22:06;;;;;;;12.83;6.80;;;;;;;;;;5146419;28;20484;-59
2021/03/18 13:24:44;;;;;;;8.60;5.07;;;;;;;;;;5157482;27;20459;-55
2021/03/18 13:27:17;;;;;;;9.93;5.60;;;;;;;;;;5152561;28;20510;-59
2021/03/18 13:29:44;;;;;;;14.27;6.53;;;;;;;;;;5152121;27;20448;-55
2021/03/18 13:32:11;;;;;;;14.03;6.50;;;;;;;;;;5147596;28;20498;-54
2021/03/18 13:34:55;;;;;;;9.88;5.93;;;;;;;;;;5151774;28;20465;-47
2021/03/18 13:37:22;;;;;;;8.73;4.60;;;;;;;;;;5153805;27;20206;-54
2021/03/18 13:39:50;;;;;;;5.93;4.23;;;;;;;;;;5155333;27;20476;-54
2021/03/18 13:42:16;;;;;;;8.60;4.95;;;;;;;;;;5159368;27;20445;-53
2021/03/18 13:44:43;;;;;;;7.80;4.80;;;;;;;;;;5147200;27;20188;-54
2021/03/18 13:47:10;;;;;;;9.98;4.60;;;;;;;;;;5150737;27;20199;-53
2021/03/18 13:50:01;;;;;;;11.77;4.28;;;;;;;;;;5137048;27;20215;-53
2021/03/18 13:52:28;;;;;;;8.60;4.35;;;;;;;;;;5150345;27;20196;-55
2021/03/18 13:54:56;;;;;;;6.72;4.25;;;;;;;;;;5152590;27;20243;-57
2021/03/18 13:57:23;;;;;;;8.52;4.80;;;;;;;;;;5144797;27;20192;-57
2021/03/18 13:59:54;;;;;;;6.35;3.75;;;;;;;;;;5158755;27;20188;-56
2021/03/18 14:02:33;;;;;;;8.63;5.03;;;;;;;;;;5159636;27;20204;-51
2021/03/18 14:05:03;;;;;;;8.80;4.05;;;;;;;;;;5159832;27;20187;-54
2021/03/18 14:07:30;;;;;;;8.00;4.07;;;;;;;;;;5159667;27;20190;-52
2021/03/18 14:09:58;;;;;;;13.05;5.60;;;;;;;;;;5159314;27;20216;-56
2021/03/18 14:12:25;;;;;;;8.52;5.03;;;;;;;;;;5159505;27;20176;-58
2021/03/18 14:15:25;;;;;;;10.85;5.18;;;;;;;;;;5158444;27;20215;-52
2021/03/18 14:17:53;;;;;;;7.35;4.75;;;;;;;;;;5159807;27;20292;-51
2021/03/18 14:20:25;;;;;;;11.05;5.53;;;;;;;;;;5158691;27;20180;-58
2021/03/18 14:23:04;;;;;;;10.13;5.05;;;;;;;;;;5159038;27;20295;-59
2021/03/18 14:25:33;;;;;;;10.82;4.78;;;;;;;;;;5154773;27;20184;-53
2021/03/18 14:28:00;;;;;;;6.22;3.88;;;;;;;;;;5158702;27;20207;-56
2021/03/18 14:30:28;;;;;;;8.07;4.63;;;;;;;;;;5154450;27;20212;-58
2021/03/18 14:32:55;;;;;;;7.68;4.45;;;;;;;;;;5152245;27;20211;-56
2021/03/18 14:36:01;;;;;;;7.43;4.05;;;;;;;;;;5150538;27;20271;-56
2021/03/18 14:38:28;;;;;;;7.15;4.28;;;;;;;;;;5158609;27;20203;-53
2021/03/18 14:41:03;;;;;;;10.43;5.53;;;;;;;;;;5159594;27;20192;-49
2021/03/18 14:43:40;;;;;;;14.57;4.47;;;;;;;;;;5150099;27;20259;-52
2021/03/18 14:46:07;;;;;;;10.50;5.63;;;;;;;;;;5156713;27;20214;-57
2021/03/18 14:48:34;;;;;;;11.98;7.40;;;;;;;;;;5159117;27;20211;-60
2021/03/18 14:51:43;;;;;;;10.73;5.22;;;;;;;;;;5165967;27;20199;-60
2021/03/18 14:54:24;;;;;;;8.25;4.03;;;;;;;;;;5146132;27;20228;-58
2021/03/18 14:56:57;;;;;;;6.22;3.75;;;;;;;;;;5156237;27;20203;-54
2021/03/18 14:59:24;;;;;;;9.65;4.90;;;;;;;;;;5157004;27;20544;-54
2021/03/18 15:01:51;;;;;;;7.20;3.92;;;;;;;;;;5153536;27;20195;-51
2021/03/18 15:04:17;;;;;;;11.48;4.68;;;;;;;;;;5150238;27;20223;-59
2021/03/18 15:06:44;;;;;;;6.72;4.10;;;;;;;;;;5151920;27;20196;-57
2021/03/18 15:09:15;;;;;;;16.52;4.72;;;;;;;;;;5157556;27;20306;-52
2021/03/18 15:11:42;;;;;;;10.32;4.45;;;;;;;;;;5147398;27;20176;-56
2021/03/18 15:14:26;;;;;;;11.77;5.03;;;;;;;;;;5157088;27;20176;-54
2021/03/18 15:16:56;;;;;;;9.20;3.85;;;;;;;;;;5137782;27;20246;-56
2021/03/18 15:19:23;;;;;;;8.43;4.57;;;;;;;;;;5142009;27;20197;-55
2021/03/18 15:21:54;;;;;;;15.85;4.95;;;;;;;;;;5154719;27;20227;-60
2021/03/18 15:24:42;;;;;;;6.22;3.60;;;;;;;;;;5154231;27;20200;-56
2021/03/18 15:27:09;;;;;;;10.13;4.50;;;;;;;;;;5147558;27;20212;-58
2021/03/18 15:29:54;;;;;;;7.20;3.63;;;;;;;;;;5156147;27;20188;-53
2021/03/18 15:32:33;;;;;;;13.27;6.07;;;;;;;;;;5152532;27;20216;-53
2021/03/18 15:35:00;;;;;;;10.68;4.90;;;;;;;;;;5155529;27;20240;-56
2021/03/18 15:37:27;;;;;;;10.88;5.13;;;;;;;;;;5140982;27;20195;-57